sensor_id;sensor_type;location;lat;lon;timestamp;P1;durP1;ratioP1;P2;durP2;ratioP2
12363;SDS011;6246;50.826;4.712;2023-03-01T00:01:02;37.63;;;20.30;;
12363;SDS011;6246;50.826;4.712;2023-03-01T00:03:29;33.10;;;19.23;;
12363;SDS011;6246;50.826;4.712;2023-03-01T00:05:55;31.03;;;18.50;;
12363;SDS011;6246;50.826;4.712;2023-03-01T00:08:21;33.23;;;18.00;;
12363;SDS011;6246;50.826;4.712;2023-03-01T00:10:47;30.50;;;17.53;;
12363;SDS011;6246;50.826;4.712;2023-03-01T00:13:13;29.03;;;17.63;;
12363;SDS011;6246;50.826;4.712;2023-03-01T00:15:39;29.97;;;17.37;;
12363;SDS011;6246;50.826;4.712;2023-03-01T00:18:06;28.27;;;16.13;;
12363;SDS011;6246;50.826;4.712;2023-03-01T00:20:33;32.50;;;16.67;;
12363;SDS011;6246;50.826;4.712;2023-03-01T00:22:59;30.73;;;16.67;;
12363;SDS011;6246;50.826;4.712;2023-03-01T00:25:25;35.23;;;15.90;;
12363;SDS011;6246;50.826;4.712;2023-03-01T00:27:51;28.27;;;15.63;;
12363;SDS011;6246;50.826;4.712;2023-03-01T00:30:17;28.77;;;14.30;;
12363;SDS011;6246;50.826;4.712;2023-03-01T00:32:43;28.90;;;14.67;;
12363;SDS011;6246;50.826;4.712;2023-03-01T00:35:09;27.53;;;15.37;;
12363;SDS011;6246;50.826;4.712;2023-03-01T00:37:35;27.07;;;14.37;;
12363;SDS011;6246;50.826;4.712;2023-03-01T00:40:01;25.83;;;14.40;;
12363;SDS011;6246;50.826;4.712;2023-03-01T00:42:31;24.53;;;13.37;;
12363;SDS011;6246;50.826;4.712;2023-03-01T00:44:57;22.57;;;13.07;;
12363;SDS011;6246;50.826;4.712;2023-03-01T00:47:23;23.97;;;13.30;;
12363;SDS011;6246;50.826;4.712;2023-03-01T00:49:49;22.50;;;12.87;;
12363;SDS011;6246;50.826;4.712;2023-03-01T00:52:15;22.03;;;12.50;;
12363;SDS011;6246;50.826;4.712;2023-03-01T00:54:40;20.77;;;12.07;;
12363;SDS011;6246;50.826;4.712;2023-03-01T00:57:06;20.30;;;11.80;;
12363;SDS011;6246;50.826;4.712;2023-03-01T00:59:32;19.33;;;11.60;;
12363;SDS011;6246;50.826;4.712;2023-03-01T01:01:59;15.33;;;10.80;;
12363;SDS011;6246;50.826;4.712;2023-03-01T01:04:25;21.37;;;11.63;;
12363;SDS011;6246;50.826;4.712;2023-03-01T01:06:51;18.57;;;10.67;;
12363;SDS011;6246;50.826;4.712;2023-03-01T01:09:17;19.13;;;11.47;;
12363;SDS011;6246;50.826;4.712;2023-03-01T01:11:48;18.93;;;10.70;;
12363;SDS011;6246;50.826;4.712;2023-03-01T01:14:14;16.00;;;10.00;;
12363;SDS011;6246;50.826;4.712;2023-03-01T01:16:40;15.37;;;9.87;;
12363;SDS011;6246;50.826;4.712;2023-03-01T01:19:06;15.53;;;9.60;;
12363;SDS011;6246;50.826;4.712;2023-03-01T01:21:32;14.93;;;9.23;;
12363;SDS011;6246;50.826;4.712;2023-03-01T01:23:58;16.87;;;9.37;;
12363;SDS011;6246;50.826;4.712;2023-03-01T01:26:26;17.13;;;9.30;;
12363;SDS011;6246;50.826;4.712;2023-03-01T01:28:52;14.60;;;9.20;;
12363;SDS011;6246;50.826;4.712;2023-03-01T01:31:19;15.50;;;8.27;;
12363;SDS011;6246;50.826;4.712;2023-03-01T01:33:45;14.37;;;9.13;;
12363;SDS011;6246;50.826;4.712;2023-03-01T01:36:12;13.10;;;7.50;;
12363;SDS011;6246;50.826;4.712;2023-03-01T01:38:38;14.07;;;8.57;;
12363;SDS011;6246;50.826;4.712;2023-03-01T01:41:04;13.27;;;8.03;;
12363;SDS011;6246;50.826;4.712;2023-03-01T01:43:34;15.07;;;7.87;;
12363;SDS011;6246;50.826;4.712;2023-03-01T01:46:01;13.17;;;7.67;;
12363;SDS011;6246;50.826;4.712;2023-03-01T01:48:34;13.50;;;8.00;;
12363;SDS011;6246;50.826;4.712;2023-03-01T01:51:05;11.30;;;7.23;;
12363;SDS011;6246;50.826;4.712;2023-03-01T01:53:33;11.57;;;7.00;;
12363;SDS011;6246;50.826;4.712;2023-03-01T01:55:59;12.00;;;7.37;;
12363;SDS011;6246;50.826;4.712;2023-03-01T01:58:27;10.03;;;7.20;;
12363;SDS011;6246;50.826;4.712;2023-03-01T02:00:55;14.13;;;6.37;;
12363;SDS011;6246;50.826;4.712;2023-03-01T02:03:39;10.87;;;6.53;;
12363;SDS011;6246;50.826;4.712;2023-03-01T02:08:36;12.70;;;7.17;;
12363;SDS011;6246;50.826;4.712;2023-03-01T02:11:03;10.60;;;6.70;;
12363;SDS011;6246;50.826;4.712;2023-03-01T02:13:30;9.53;;;6.33;;
12363;SDS011;6246;50.826;4.712;2023-03-01T02:15:56;12.00;;;6.30;;
12363;SDS011;6246;50.826;4.712;2023-03-01T02:18:23;12.70;;;7.30;;
12363;SDS011;6246;50.826;4.712;2023-03-01T02:23:15;11.17;;;7.03;;
12363;SDS011;6246;50.826;4.712;2023-03-01T02:25:52;9.33;;;6.20;;
12363;SDS011;6246;50.826;4.712;2023-03-01T02:30:48;10.40;;;6.30;;
12363;SDS011;6246;50.826;4.712;2023-03-01T02:33:34;11.03;;;6.00;;
12363;SDS011;6246;50.826;4.712;2023-03-01T02:36:01;8.67;;;6.00;;
12363;SDS011;6246;50.826;4.712;2023-03-01T02:38:28;10.37;;;5.87;;
12363;SDS011;6246;50.826;4.712;2023-03-01T02:40:55;7.53;;;5.20;;
12363;SDS011;6246;50.826;4.712;2023-03-01T02:43:23;7.30;;;5.43;;
12363;SDS011;6246;50.826;4.712;2023-03-01T02:45:50;7.80;;;5.53;;
12363;SDS011;6246;50.826;4.712;2023-03-01T02:48:18;6.43;;;4.90;;
12363;SDS011;6246;50.826;4.712;2023-03-01T02:55:42;8.80;;;5.93;;
12363;SDS011;6246;50.826;4.712;2023-03-01T02:58:08;7.30;;;5.00;;
12363;SDS011;6246;50.826;4.712;2023-03-01T03:00:41;7.87;;;4.87;;
12363;SDS011;6246;50.826;4.712;2023-03-01T03:03:18;6.97;;;4.90;;
12363;SDS011;6246;50.826;4.712;2023-03-01T03:05:44;6.63;;;4.77;;
12363;SDS011;6246;50.826;4.712;2023-03-01T03:08:11;6.37;;;4.47;;
12363;SDS011;6246;50.826;4.712;2023-03-01T03:10:38;7.53;;;4.80;;
12363;SDS011;6246;50.826;4.712;2023-03-01T03:13:06;7.33;;;4.90;;
12363;SDS011;6246;50.826;4.712;2023-03-01T03:15:32;8.30;;;5.00;;
12363;SDS011;6246;50.826;4.712;2023-03-01T03:18:04;6.33;;;4.60;;
12363;SDS011;6246;50.826;4.712;2023-03-01T03:20:30;7.00;;;4.77;;
12363;SDS011;6246;50.826;4.712;2023-03-01T03:22:57;6.63;;;4.73;;
12363;SDS011;6246;50.826;4.712;2023-03-01T03:25:24;6.97;;;4.67;;
12363;SDS011;6246;50.826;4.712;2023-03-01T03:27:50;5.70;;;4.27;;
12363;SDS011;6246;50.826;4.712;2023-03-01T03:30:31;5.53;;;4.57;;
12363;SDS011;6246;50.826;4.712;2023-03-01T03:32:58;6.03;;;4.60;;
12363;SDS011;6246;50.826;4.712;2023-03-01T03:35:26;5.30;;;4.40;;
12363;SDS011;6246;50.826;4.712;2023-03-01T03:37:53;6.77;;;4.53;;
12363;SDS011;6246;50.826;4.712;2023-03-01T03:43:01;5.20;;;4.30;;
12363;SDS011;6246;50.826;4.712;2023-03-01T03:45:27;6.67;;;4.20;;
12363;SDS011;6246;50.826;4.712;2023-03-01T03:47:53;6.23;;;4.10;;
12363;SDS011;6246;50.826;4.712;2023-03-01T03:50:19;6.43;;;4.10;;
12363;SDS011;6246;50.826;4.712;2023-03-01T03:52:45;4.40;;;4.00;;
12363;SDS011;6246;50.826;4.712;2023-03-01T03:55:12;4.10;;;3.70;;
12363;SDS011;6246;50.826;4.712;2023-03-01T03:57:38;5.57;;;4.17;;
12363;SDS011;6246;50.826;4.712;2023-03-01T04:00:05;4.20;;;3.70;;
12363;SDS011;6246;50.826;4.712;2023-03-01T04:02:37;5.83;;;3.87;;
12363;SDS011;6246;50.826;4.712;2023-03-01T04:05:03;4.40;;;3.70;;
12363;SDS011;6246;50.826;4.712;2023-03-01T04:07:30;4.20;;;3.60;;
12363;SDS011;6246;50.826;4.712;2023-03-01T04:09:56;4.40;;;3.90;;
12363;SDS011;6246;50.826;4.712;2023-03-01T04:12:22;4.87;;;4.07;;
12363;SDS011;6246;50.826;4.712;2023-03-01T04:14:48;5.43;;;3.93;;
12363;SDS011;6246;50.826;4.712;2023-03-01T04:17:14;4.50;;;3.90;;
12363;SDS011;6246;50.826;4.712;2023-03-01T04:19:40;4.60;;;3.73;;
12363;SDS011;6246;50.826;4.712;2023-03-01T04:22:09;5.33;;;3.67;;
12363;SDS011;6246;50.826;4.712;2023-03-01T04:24:36;4.53;;;4.03;;
12363;SDS011;6246;50.826;4.712;2023-03-01T04:27:02;4.03;;;3.63;;
12363;SDS011;6246;50.826;4.712;2023-03-01T04:29:28;4.20;;;3.80;;
12363;SDS011;6246;50.826;4.712;2023-03-01T04:31:55;4.23;;;3.67;;
12363;SDS011;6246;50.826;4.712;2023-03-01T04:34:21;4.47;;;3.80;;
12363;SDS011;6246;50.826;4.712;2023-03-01T04:36:47;4.20;;;3.80;;
12363;SDS011;6246;50.826;4.712;2023-03-01T04:39:13;5.50;;;3.80;;
12363;SDS011;6246;50.826;4.712;2023-03-01T04:41:39;4.10;;;3.10;;
12363;SDS011;6246;50.826;4.712;2023-03-01T04:44:06;3.30;;;3.00;;
12363;SDS011;6246;50.826;4.712;2023-03-01T04:46:34;4.10;;;3.67;;
12363;SDS011;6246;50.826;4.712;2023-03-01T04:49:00;3.47;;;3.17;;
12363;SDS011;6246;50.826;4.712;2023-03-01T04:51:26;3.80;;;3.47;;
12363;SDS011;6246;50.826;4.712;2023-03-01T04:53:52;3.97;;;3.57;;
12363;SDS011;6246;50.826;4.712;2023-03-01T04:56:18;4.63;;;3.40;;
12363;SDS011;6246;50.826;4.712;2023-03-01T04:58:45;4.30;;;3.67;;
12363;SDS011;6246;50.826;4.712;2023-03-01T05:01:12;4.97;;;3.90;;
12363;SDS011;6246;50.826;4.712;2023-03-01T05:03:44;4.03;;;3.53;;
12363;SDS011;6246;50.826;4.712;2023-03-01T05:06:11;4.07;;;3.30;;
12363;SDS011;6246;50.826;4.712;2023-03-01T05:08:37;5.13;;;3.13;;
12363;SDS011;6246;50.826;4.712;2023-03-01T05:11:03;4.97;;;3.57;;
12363;SDS011;6246;50.826;4.712;2023-03-01T05:13:30;4.23;;;3.50;;
12363;SDS011;6246;50.826;4.712;2023-03-01T05:15:58;5.97;;;3.43;;
12363;SDS011;6246;50.826;4.712;2023-03-01T05:18:25;5.97;;;3.83;;
12363;SDS011;6246;50.826;4.712;2023-03-01T05:20:52;5.07;;;3.20;;
12363;SDS011;6246;50.826;4.712;2023-03-01T05:23:21;4.63;;;3.30;;
12363;SDS011;6246;50.826;4.712;2023-03-01T05:25:47;5.20;;;3.47;;
12363;SDS011;6246;50.826;4.712;2023-03-01T05:28:14;4.47;;;3.33;;
12363;SDS011;6246;50.826;4.712;2023-03-01T05:30:40;3.87;;;3.43;;
12363;SDS011;6246;50.826;4.712;2023-03-01T05:33:06;6.43;;;3.50;;
12363;SDS011;6246;50.826;4.712;2023-03-01T05:35:38;3.67;;;3.37;;
12363;SDS011;6246;50.826;4.712;2023-03-01T05:38:04;3.53;;;3.23;;
12363;SDS011;6246;50.826;4.712;2023-03-01T05:40:32;7.77;;;3.40;;
12363;SDS011;6246;50.826;4.712;2023-03-01T05:42:58;6.10;;;3.17;;
12363;SDS011;6246;50.826;4.712;2023-03-01T05:45:25;3.97;;;3.47;;
12363;SDS011;6246;50.826;4.712;2023-03-01T05:47:52;3.40;;;3.10;;
12363;SDS011;6246;50.826;4.712;2023-03-01T05:50:21;3.27;;;2.90;;
12363;SDS011;6246;50.826;4.712;2023-03-01T05:52:47;3.30;;;3.00;;
12363;SDS011;6246;50.826;4.712;2023-03-01T05:55:15;4.40;;;3.20;;
12363;SDS011;6246;50.826;4.712;2023-03-01T05:57:41;3.40;;;3.10;;
12363;SDS011;6246;50.826;4.712;2023-03-01T06:00:08;4.27;;;3.30;;
12363;SDS011;6246;50.826;4.712;2023-03-01T06:02:34;3.97;;;3.40;;
12363;SDS011;6246;50.826;4.712;2023-03-01T06:05:00;5.37;;;3.33;;
12363;SDS011;6246;50.826;4.712;2023-03-01T06:07:26;4.90;;;3.73;;
12363;SDS011;6246;50.826;4.712;2023-03-01T06:09:52;4.37;;;3.37;;
12363;SDS011;6246;50.826;4.712;2023-03-01T06:12:18;6.67;;;3.27;;
12363;SDS011;6246;50.826;4.712;2023-03-01T06:14:44;3.30;;;3.00;;
12363;SDS011;6246;50.826;4.712;2023-03-01T06:17:11;5.37;;;3.40;;
12363;SDS011;6246;50.826;4.712;2023-03-01T06:19:37;4.17;;;3.30;;
12363;SDS011;6246;50.826;4.712;2023-03-01T06:22:03;3.27;;;2.97;;
12363;SDS011;6246;50.826;4.712;2023-03-01T06:24:29;3.67;;;3.20;;
12363;SDS011;6246;50.826;4.712;2023-03-01T06:26:55;3.97;;;3.40;;
12363;SDS011;6246;50.826;4.712;2023-03-01T06:29:21;4.67;;;3.40;;
12363;SDS011;6246;50.826;4.712;2023-03-01T06:31:47;3.67;;;2.97;;
12363;SDS011;6246;50.826;4.712;2023-03-01T06:34:13;6.00;;;3.20;;
12363;SDS011;6246;50.826;4.712;2023-03-01T06:36:40;4.77;;;3.57;;
12363;SDS011;6246;50.826;4.712;2023-03-01T06:39:06;3.80;;;3.43;;
12363;SDS011;6246;50.826;4.712;2023-03-01T06:41:32;4.00;;;3.13;;
12363;SDS011;6246;50.826;4.712;2023-03-01T06:43:59;3.60;;;3.07;;
12363;SDS011;6246;50.826;4.712;2023-03-01T06:46:25;3.50;;;3.20;;
12363;SDS011;6246;50.826;4.712;2023-03-01T06:48:51;4.67;;;2.93;;
12363;SDS011;6246;50.826;4.712;2023-03-01T06:51:17;3.47;;;2.97;;
12363;SDS011;6246;50.826;4.712;2023-03-01T06:53:43;4.23;;;2.97;;
12363;SDS011;6246;50.826;4.712;2023-03-01T06:56:09;3.70;;;3.37;;
12363;SDS011;6246;50.826;4.712;2023-03-01T06:58:35;3.93;;;3.33;;
12363;SDS011;6246;50.826;4.712;2023-03-01T07:01:05;5.37;;;2.90;;
12363;SDS011;6246;50.826;4.712;2023-03-01T07:03:31;3.40;;;3.10;;
12363;SDS011;6246;50.826;4.712;2023-03-01T07:05:57;5.17;;;3.30;;
12363;SDS011;6246;50.826;4.712;2023-03-01T07:08:23;3.13;;;2.83;;
12363;SDS011;6246;50.826;4.712;2023-03-01T07:10:54;3.07;;;2.80;;
12363;SDS011;6246;50.826;4.712;2023-03-01T07:13:20;3.00;;;2.80;;
12363;SDS011;6246;50.826;4.712;2023-03-01T07:15:46;2.93;;;2.73;;
12363;SDS011;6246;50.826;4.712;2023-03-01T07:18:12;8.33;;;5.40;;
12363;SDS011;6246;50.826;4.712;2023-03-01T07:20:38;7.00;;;6.13;;
12363;SDS011;6246;50.826;4.712;2023-03-01T07:23:05;9.53;;;6.43;;
12363;SDS011;6246;50.826;4.712;2023-03-01T07:25:31;9.20;;;6.90;;
12363;SDS011;6246;50.826;4.712;2023-03-01T07:27:57;9.00;;;7.47;;
12363;SDS011;6246;50.826;4.712;2023-03-01T07:30:23;36.47;;;8.93;;
12363;SDS011;6246;50.826;4.712;2023-03-01T07:32:52;17.90;;;8.13;;
12363;SDS011;6246;50.826;4.712;2023-03-01T07:35:18;16.00;;;7.00;;
12363;SDS011;6246;50.826;4.712;2023-03-01T07:37:44;9.80;;;6.43;;
12363;SDS011;6246;50.826;4.712;2023-03-01T07:40:10;12.70;;;6.23;;
12363;SDS011;6246;50.826;4.712;2023-03-01T07:42:37;10.30;;;6.17;;
12363;SDS011;6246;50.826;4.712;2023-03-01T07:45:03;7.77;;;5.97;;
12363;SDS011;6246;50.826;4.712;2023-03-01T07:47:29;7.67;;;5.97;;
12363;SDS011;6246;50.826;4.712;2023-03-01T07:49:55;8.90;;;6.27;;
12363;SDS011;6246;50.826;4.712;2023-03-01T07:52:21;7.20;;;5.57;;
12363;SDS011;6246;50.826;4.712;2023-03-01T07:54:47;8.80;;;5.57;;
12363;SDS011;6246;50.826;4.712;2023-03-01T07:57:13;12.53;;;5.57;;
12363;SDS011;6246;50.826;4.712;2023-03-01T07:59:40;9.80;;;5.83;;
12363;SDS011;6246;50.826;4.712;2023-03-01T08:02:06;7.20;;;5.30;;
12363;SDS011;6246;50.826;4.712;2023-03-01T08:04:32;10.10;;;5.00;;
12363;SDS011;6246;50.826;4.712;2023-03-01T08:06:58;9.63;;;5.33;;
12363;SDS011;6246;50.826;4.712;2023-03-01T08:09:24;7.43;;;4.93;;
12363;SDS011;6246;50.826;4.712;2023-03-01T08:11:50;6.77;;;5.33;;
12363;SDS011;6246;50.826;4.712;2023-03-01T08:14:16;6.20;;;4.87;;
12363;SDS011;6246;50.826;4.712;2023-03-01T08:16:42;9.77;;;5.17;;
12363;SDS011;6246;50.826;4.712;2023-03-01T08:19:09;9.23;;;5.30;;
12363;SDS011;6246;50.826;4.712;2023-03-01T08:21:36;9.43;;;5.17;;
12363;SDS011;6246;50.826;4.712;2023-03-01T08:24:02;8.07;;;4.70;;
12363;SDS011;6246;50.826;4.712;2023-03-01T08:26:28;5.63;;;4.60;;
12363;SDS011;6246;50.826;4.712;2023-03-01T08:28:54;6.00;;;4.83;;
12363;SDS011;6246;50.826;4.712;2023-03-01T08:33:47;6.93;;;4.43;;
12363;SDS011;6246;50.826;4.712;2023-03-01T08:36:16;5.70;;;4.50;;
12363;SDS011;6246;50.826;4.712;2023-03-01T08:38:43;7.50;;;4.60;;
12363;SDS011;6246;50.826;4.712;2023-03-01T08:41:09;4.83;;;4.23;;
12363;SDS011;6246;50.826;4.712;2023-03-01T08:43:35;4.60;;;4.20;;
12363;SDS011;6246;50.826;4.712;2023-03-01T08:46:01;5.73;;;4.33;;
12363;SDS011;6246;50.826;4.712;2023-03-01T08:48:27;6.40;;;4.60;;
12363;SDS011;6246;50.826;4.712;2023-03-01T08:50:53;4.83;;;4.17;;
12363;SDS011;6246;50.826;4.712;2023-03-01T08:53:19;5.53;;;3.40;;
12363;SDS011;6246;50.826;4.712;2023-03-01T08:55:45;5.00;;;4.00;;
12363;SDS011;6246;50.826;4.712;2023-03-01T08:58:11;5.03;;;3.90;;
12363;SDS011;6246;50.826;4.712;2023-03-01T09:00:38;6.63;;;4.27;;
12363;SDS011;6246;50.826;4.712;2023-03-01T09:03:05;4.40;;;4.00;;
12363;SDS011;6246;50.826;4.712;2023-03-01T09:05:32;5.43;;;3.90;;
12363;SDS011;6246;50.826;4.712;2023-03-01T09:07:58;5.33;;;3.60;;
12363;SDS011;6246;50.826;4.712;2023-03-01T09:10:24;5.10;;;3.90;;
12363;SDS011;6246;50.826;4.712;2023-03-01T09:12:51;4.60;;;3.80;;
12363;SDS011;6246;50.826;4.712;2023-03-01T09:15:17;5.53;;;3.97;;
12363;SDS011;6246;50.826;4.712;2023-03-01T09:17:43;4.77;;;3.50;;
12363;SDS011;6246;50.826;4.712;2023-03-01T09:20:09;5.47;;;3.60;;
12363;SDS011;6246;50.826;4.712;2023-03-01T09:22:35;4.57;;;3.57;;
12363;SDS011;6246;50.826;4.712;2023-03-01T09:25:01;5.33;;;3.63;;
12363;SDS011;6246;50.826;4.712;2023-03-01T09:27:27;4.27;;;3.60;;
12363;SDS011;6246;50.826;4.712;2023-03-01T09:29:53;3.50;;;3.20;;
12363;SDS011;6246;50.826;4.712;2023-03-01T09:32:21;3.60;;;3.30;;
12363;SDS011;6246;50.826;4.712;2023-03-01T09:34:47;4.30;;;3.70;;
12363;SDS011;6246;50.826;4.712;2023-03-01T09:37:32;3.57;;;3.27;;
12363;SDS011;6246;50.826;4.712;2023-03-01T09:39:58;3.80;;;3.50;;
12363;SDS011;6246;50.826;4.712;2023-03-01T09:42:24;4.57;;;3.33;;
12363;SDS011;6246;50.826;4.712;2023-03-01T09:44:52;3.63;;;3.07;;
12363;SDS011;6246;50.826;4.712;2023-03-01T09:47:20;3.57;;;3.20;;
12363;SDS011;6246;50.826;4.712;2023-03-01T09:55:04;9.73;;;3.60;;
12363;SDS011;6246;50.826;4.712;2023-03-01T10:00:02;4.77;;;3.30;;
12363;SDS011;6246;50.826;4.712;2023-03-01T10:10:05;6.30;;;3.90;;
12363;SDS011;6246;50.826;4.712;2023-03-01T10:12:36;4.03;;;3.17;;
12363;SDS011;6246;50.826;4.712;2023-03-01T10:15:20;4.93;;;3.60;;
12363;SDS011;6246;50.826;4.712;2023-03-01T10:17:52;5.63;;;3.13;;
12363;SDS011;6246;50.826;4.712;2023-03-01T10:20:24;5.00;;;3.50;;
12363;SDS011;6246;50.826;4.712;2023-03-01T10:22:51;3.60;;;3.30;;
12363;SDS011;6246;50.826;4.712;2023-03-01T10:25:44;7.00;;;3.27;;
12363;SDS011;6246;50.826;4.712;2023-03-01T10:28:16;6.33;;;3.57;;
12363;SDS011;6246;50.826;4.712;2023-03-01T10:30:43;15.00;;;4.07;;
12363;SDS011;6246;50.826;4.712;2023-03-01T10:35:42;46.13;;;7.17;;
12363;SDS011;6246;50.826;4.712;2023-03-01T10:38:09;72.50;;;8.97;;
12363;SDS011;6246;50.826;4.712;2023-03-01T10:40:35;72.53;;;8.87;;
12363;SDS011;6246;50.826;4.712;2023-03-01T10:43:03;57.53;;;8.50;;
12363;SDS011;6246;50.826;4.712;2023-03-01T10:50:44;41.60;;;7.93;;
12363;SDS011;6246;50.826;4.712;2023-03-01T10:53:24;53.13;;;8.50;;
12363;SDS011;6246;50.826;4.712;2023-03-01T10:55:58;37.30;;;8.33;;
12363;SDS011;6246;50.826;4.712;2023-03-01T10:58:25;38.80;;;6.53;;
12363;SDS011;6246;50.826;4.712;2023-03-01T11:00:52;23.00;;;5.70;;
12363;SDS011;6246;50.826;4.712;2023-03-01T11:03:21;27.13;;;6.20;;
12363;SDS011;6246;50.826;4.712;2023-03-01T11:06:04;31.77;;;6.10;;
12363;SDS011;6246;50.826;4.712;2023-03-01T11:08:31;38.53;;;6.57;;
12363;SDS011;6246;50.826;4.712;2023-03-01T11:11:16;19.77;;;5.50;;
12363;SDS011;6246;50.826;4.712;2023-03-01T11:13:56;25.73;;;5.80;;
12363;SDS011;6246;50.826;4.712;2023-03-01T11:16:32;34.23;;;6.50;;
12363;SDS011;6246;50.826;4.712;2023-03-01T11:19:04;24.77;;;6.43;;
12363;SDS011;6246;50.826;4.712;2023-03-01T11:21:39;19.00;;;5.70;;
12363;SDS011;6246;50.826;4.712;2023-03-01T11:24:09;17.73;;;5.77;;
12363;SDS011;6246;50.826;4.712;2023-03-01T11:26:36;17.77;;;5.67;;
12363;SDS011;6246;50.826;4.712;2023-03-01T11:29:04;19.73;;;5.40;;
12363;SDS011;6246;50.826;4.712;2023-03-01T11:31:30;19.23;;;5.10;;
12363;SDS011;6246;50.826;4.712;2023-03-01T11:34:04;22.63;;;5.23;;
12363;SDS011;6246;50.826;4.712;2023-03-01T11:36:35;111.70;;;11.00;;
12363;SDS011;6246;50.826;4.712;2023-03-01T11:39:05;27.73;;;5.23;;
12363;SDS011;6246;50.826;4.712;2023-03-01T11:41:34;26.53;;;5.80;;
12363;SDS011;6246;50.826;4.712;2023-03-01T11:44:03;18.60;;;4.90;;
12363;SDS011;6246;50.826;4.712;2023-03-01T11:54:13;19.00;;;5.20;;
12363;SDS011;6246;50.826;4.712;2023-03-01T11:56:43;16.67;;;5.00;;
12363;SDS011;6246;50.826;4.712;2023-03-01T11:59:16;28.03;;;5.30;;
12363;SDS011;6246;50.826;4.712;2023-03-01T12:01:51;18.47;;;5.37;;
12363;SDS011;6246;50.826;4.712;2023-03-01T12:09:41;35.03;;;5.20;;
12363;SDS011;6246;50.826;4.712;2023-03-01T12:25:21;21.17;;;4.80;;
12363;SDS011;6246;50.826;4.712;2023-03-01T12:27:54;15.13;;;4.17;;
12363;SDS011;6246;50.826;4.712;2023-03-01T12:50:54;17.73;;;5.57;;
12363;SDS011;6246;50.826;4.712;2023-03-01T12:55:53;22.00;;;5.27;;
12363;SDS011;6246;50.826;4.712;2023-03-01T13:08:35;16.73;;;4.40;;
12363;SDS011;6246;50.826;4.712;2023-03-01T13:11:02;11.70;;;4.10;;
12363;SDS011;6246;50.826;4.712;2023-03-01T13:13:29;9.33;;;4.60;;
12363;SDS011;6246;50.826;4.712;2023-03-01T13:15:55;9.97;;;4.03;;
12363;SDS011;6246;50.826;4.712;2023-03-01T13:20:49;11.83;;;4.10;;
12363;SDS011;6246;50.826;4.712;2023-03-01T13:31:01;8.97;;;4.20;;
12363;SDS011;6246;50.826;4.712;2023-03-01T13:35:54;7.05;;;3.60;;
12363;SDS011;6246;50.826;4.712;2023-03-01T13:41:06;6.25;;;3.58;;
12363;SDS011;6246;50.826;4.712;2023-03-01T13:43:40;7.03;;;3.22;;
12363;SDS011;6246;50.826;4.712;2023-03-01T13:46:08;8.20;;;3.70;;
12363;SDS011;6246;50.826;4.712;2023-03-01T13:48:36;5.43;;;3.47;;
12363;SDS011;6246;50.826;4.712;2023-03-01T13:51:03;9.25;;;3.40;;
12363;SDS011;6246;50.826;4.712;2023-03-01T13:53:31;5.20;;;4.13;;
12363;SDS011;6246;50.826;4.712;2023-03-01T13:58:49;20.63;;;4.90;;
12363;SDS011;6246;50.826;4.712;2023-03-01T14:01:29;17.48;;;5.03;;
12363;SDS011;6246;50.826;4.712;2023-03-01T14:03:56;14.05;;;4.25;;
12363;SDS011;6246;50.826;4.712;2023-03-01T14:06:26;15.32;;;4.03;;
12363;SDS011;6246;50.826;4.712;2023-03-01T14:09:03;11.75;;;3.90;;
12363;SDS011;6246;50.826;4.712;2023-03-01T14:19:18;12.02;;;4.60;;
12363;SDS011;6246;50.826;4.712;2023-03-01T14:21:46;8.55;;;3.63;;
12363;SDS011;6246;50.826;4.712;2023-03-01T14:24:31;9.63;;;4.20;;
12363;SDS011;6246;50.826;4.712;2023-03-01T14:26:58;8.48;;;3.70;;
12363;SDS011;6246;50.826;4.712;2023-03-01T14:29:34;10.38;;;3.83;;
12363;SDS011;6246;50.826;4.712;2023-03-01T14:32:18;9.00;;;3.95;;
12363;SDS011;6246;50.826;4.712;2023-03-01T14:34:45;9.43;;;3.90;;
12363;SDS011;6246;50.826;4.712;2023-03-01T14:37:17;8.75;;;4.15;;
12363;SDS011;6246;50.826;4.712;2023-03-01T14:39:44;5.53;;;3.33;;
12363;SDS011;6246;50.826;4.712;2023-03-01T14:42:11;4.20;;;3.25;;
12363;SDS011;6246;50.826;4.712;2023-03-01T14:44:37;9.43;;;4.07;;
12363;SDS011;6246;50.826;4.712;2023-03-01T14:47:03;4.75;;;3.13;;
12363;SDS011;6246;50.826;4.712;2023-03-01T14:49:31;9.20;;;4.38;;
12363;SDS011;6246;50.826;4.712;2023-03-01T14:52:01;7.30;;;3.72;;
12363;SDS011;6246;50.826;4.712;2023-03-01T14:57:03;5.63;;;3.25;;
12363;SDS011;6246;50.826;4.712;2023-03-01T14:59:29;9.32;;;4.15;;
12363;SDS011;6246;50.826;4.712;2023-03-01T15:01:56;7.95;;;3.95;;
12363;SDS011;6246;50.826;4.712;2023-03-01T15:04:23;9.73;;;4.07;;
12363;SDS011;6246;50.826;4.712;2023-03-01T15:06:50;7.23;;;3.43;;
12363;SDS011;6246;50.826;4.712;2023-03-01T15:09:16;8.13;;;3.93;;
12363;SDS011;6246;50.826;4.712;2023-03-01T15:11:43;6.50;;;3.80;;
12363;SDS011;6246;50.826;4.712;2023-03-01T15:14:25;9.53;;;3.93;;
12363;SDS011;6246;50.826;4.712;2023-03-01T15:16:52;7.13;;;3.00;;
12363;SDS011;6246;50.826;4.712;2023-03-01T15:19:18;9.97;;;3.60;;
12363;SDS011;6246;50.826;4.712;2023-03-01T15:21:46;4.85;;;3.50;;
12363;SDS011;6246;50.826;4.712;2023-03-01T15:26:54;7.83;;;3.90;;
12363;SDS011;6246;50.826;4.712;2023-03-01T15:29:24;7.73;;;3.87;;
12363;SDS011;6246;50.826;4.712;2023-03-01T15:34:30;9.20;;;3.80;;
12363;SDS011;6246;50.826;4.712;2023-03-01T15:36:58;8.87;;;3.87;;
12363;SDS011;6246;50.826;4.712;2023-03-01T15:41:54;8.83;;;4.10;;
12363;SDS011;6246;50.826;4.712;2023-03-01T15:44:28;6.70;;;3.70;;
12363;SDS011;6246;50.826;4.712;2023-03-01T15:46:54;4.93;;;3.40;;
12363;SDS011;6246;50.826;4.712;2023-03-01T15:49:37;6.23;;;3.90;;
12363;SDS011;6246;50.826;4.712;2023-03-01T15:52:05;6.47;;;3.67;;
12363;SDS011;6246;50.826;4.712;2023-03-01T15:54:32;6.53;;;4.00;;
12363;SDS011;6246;50.826;4.712;2023-03-01T15:56:59;8.20;;;4.13;;
12363;SDS011;6246;50.826;4.712;2023-03-01T15:59:25;6.43;;;3.70;;
12363;SDS011;6246;50.826;4.712;2023-03-01T16:01:51;8.03;;;3.60;;
12363;SDS011;6246;50.826;4.712;2023-03-01T16:04:17;10.10;;;3.93;;
12363;SDS011;6246;50.826;4.712;2023-03-01T16:06:48;10.33;;;3.97;;
12363;SDS011;6246;50.826;4.712;2023-03-01T16:09:19;6.90;;;4.07;;
12363;SDS011;6246;50.826;4.712;2023-03-01T16:11:45;6.53;;;4.00;;
12363;SDS011;6246;50.826;4.712;2023-03-01T16:14:11;6.37;;;4.03;;
12363;SDS011;6246;50.826;4.712;2023-03-01T16:16:37;10.73;;;4.37;;
12363;SDS011;6246;50.826;4.712;2023-03-01T16:19:03;7.73;;;4.17;;
12363;SDS011;6246;50.826;4.712;2023-03-01T16:21:29;9.53;;;4.03;;
12363;SDS011;6246;50.826;4.712;2023-03-01T16:23:55;9.90;;;4.47;;
12363;SDS011;6246;50.826;4.712;2023-03-01T16:26:21;7.07;;;3.80;;
12363;SDS011;6246;50.826;4.712;2023-03-01T16:28:47;8.23;;;4.03;;
12363;SDS011;6246;50.826;4.712;2023-03-01T16:31:17;10.83;;;4.30;;
12363;SDS011;6246;50.826;4.712;2023-03-01T16:33:44;9.63;;;4.27;;
12363;SDS011;6246;50.826;4.712;2023-03-01T16:36:14;7.13;;;4.00;;
12363;SDS011;6246;50.826;4.712;2023-03-01T16:38:41;10.83;;;4.40;;
12363;SDS011;6246;50.826;4.712;2023-03-01T16:41:11;7.80;;;4.03;;
12363;SDS011;6246;50.826;4.712;2023-03-01T16:43:37;8.50;;;3.93;;
12363;SDS011;6246;50.826;4.712;2023-03-01T16:46:09;6.33;;;3.77;;
12363;SDS011;6246;50.826;4.712;2023-03-01T16:48:35;6.57;;;3.70;;
12363;SDS011;6246;50.826;4.712;2023-03-01T16:51:01;7.60;;;4.20;;
12363;SDS011;6246;50.826;4.712;2023-03-01T16:53:27;24.43;;;5.07;;
12363;SDS011;6246;50.826;4.712;2023-03-01T16:55:57;17.60;;;5.57;;
12363;SDS011;6246;50.826;4.712;2023-03-01T16:58:23;14.13;;;5.00;;
12363;SDS011;6246;50.826;4.712;2023-03-01T17:00:50;12.67;;;4.83;;
12363;SDS011;6246;50.826;4.712;2023-03-01T17:03:18;21.73;;;6.87;;
12363;SDS011;6246;50.826;4.712;2023-03-01T17:05:44;24.23;;;11.83;;
12363;SDS011;6246;50.826;4.712;2023-03-01T17:08:10;25.83;;;14.90;;
12363;SDS011;6246;50.826;4.712;2023-03-01T17:10:36;28.40;;;18.73;;
12363;SDS011;6246;50.826;4.712;2023-03-01T17:13:02;27.00;;;18.33;;
12363;SDS011;6246;50.826;4.712;2023-03-01T17:15:28;33.37;;;18.07;;